Caldwell, ID

11:55 PM MDT on August 21, 2014 (GMT -0600)
Caldwell Industrial | Change Station
CLOSE
Current Station
Airport
Location: Caldwell,
Elevation: 2428 ft
Nearby Weather Stations

Elev 2428 ft 43.64 °N, 116.64 °W | Updated 20 minutes ago

Clear
Clear
59 °F
Feels Like 59 °F
N
10
Wind Variable Wind from East

Today
High -- | Low -- °F
--% Chance of Precip.
Yesterday
High -- | Low -- °F
Precip. -- in
6:58 AM 8:40 PM
Waning Crescent, 10% visible
Pressure 29.88 in
Visibility 10.0 miles
Clouds Clear
Dew Point 41 °F
Humidity 51%
Rainfall 0.00 in
Snow Depth Not available.
UV 0 out of 12
Pollen 7.80 out of 12
PM2.5 Good
Flu Activity Not available.
METAR KEUL 220535Z AUTO 10009KT 10SM CLR 15/05 A2988 RMK AO1

More Conditions Fewer Conditions

Pressure 29.88 in
Visibility 10.0 miles
Clouds Clear
Dew Point 41 °F
Humidity 51%
Rainfall 0.00 in
Snow Depth Not available.
UV 0 out of 12
Pollen 7.80 out of 12
PM2.5 Good
Flu Activity Not available.
METAR KEUL 220535Z AUTO 10009KT 10SM CLR 15/05 A2988 RMK AO1

More Conditions Fewer Conditions

10-Day Weather Forecast

Almanac

Astronomy

Aug. 21, 2014 Rise Set
Actual Time 6:58 AM MDT 8:40 PM MDT
Civil Twilight 6:27 AM MDT 9:11 PM MDT
Nautical Twilight 5:50 AM MDT 9:48 PM MDT
Astronomical Twilight 5:10 AM MDT 10:27 PM MDT
Moon 3:29 AM MDT (8/21) 6:15 PM MDT (8/21)
Length of Visible Light 14h 43m
Length of Day
13h 42m
Tomorrow will be 2m 45s shorter.
Waning Crescent, 10% of the Moon is Illuminated
Aug 22
Waning Crescent
Aug 25
New
Sep 2
First Quarter
Sep 8
Full
Sep 15
Last Quarter

Yesterday's Extremes

State Highs State Lows

Community

WunderPhotos

Upload Photos

1,746,131 photos uploaded!

Nearby

Air Quality

  Air Quality AQ Index Pollutant
Yesterday Good
OZONE
Yesterday Good
PM10
Current Good
PM2.5
Thursday Good
OZONE
Friday Good
OZONE
Saturday Good
OZONE

Snow Depth

Station Depth Elevation
Bogus Basin 0 in 6340 ft
Van Wyck 0 in 4920 ft
South Mountain 0 in 6500 ft
Trinity Mountain 1 in 7770 ft
Jackson Peak 1 in 7070 ft

Earthquake Activity

City Distance Mag. Time & Date
No recent earthquake activity has been reported nearby.
Minimum magnitude displayed is 2.5.

Coastal Water Temperatures

Place Temperature
No Stations Reporting

Nearby Weather Stations